SCIE/CCP METAR and TAF weather

Enter ICAO airport designator
Station Type Date Time Source
SCIE METAR 2019/04/20 18:00 UTC NOAA

SCIE 201800Z 03006KT 350V060 8000 SCT014 OVC048 15/12 Q1019


Station Type Date Time Source
SCIE Decoded METAR 2019/04/20 18:00 UTC NOAA

Concepcion, Chile (SCIE) 36-46S 073-03W
Apr 20, 2019 - 02:00 PM EDT / 2019.04.20 1800 UTC
Wind: from the NNE (030 degrees) at 7 MPH (6 KT) (direction variable):0
Visibility: 4 mile(s):0
Sky conditions: overcast
Temperature: 59 F (15 C)
Dew Point: 53 F (12 C)
Relative Humidity: 82%
Pressure (altimeter): 30.09 in. Hg (1019 hPa)
ob: SCIE 201800Z 03006KT 350V060 8000 SCT014 OVC048 15/12 Q1019
cycle: 18

Station Type Date Time Source
SCIE TAF 2019/04/20 18:03 UTC NOAA

TAF SCIE 201642Z 2018/2118 24008KT 9999 SCT015 BKN050 TX16/2018Z TN10/2111Z
TEMPO 2019/2100 35006KT
BECMG 2100/2102 20004KT SCT015 OVC020
BECMG 2115/2117 30008KT SCT025 OVC030

Example: see airport list